createdAt,value
2023-05-12T00:00:01.195Z,8.67
2023-05-12T00:16:03.527Z,8.72
2023-05-12T00:31:00.504Z,8.67
2023-05-12T00:46:02.776Z,8.67
2023-05-12T00:59:59.678Z,8.67
2023-05-12T01:16:02.002Z,8.72
2023-05-12T01:31:01.258Z,8.72
2023-05-12T01:46:01.018Z,8.78
2023-05-12T02:00:03.265Z,8.78
2023-05-12T02:16:00.520Z,8.72
2023-05-12T02:31:02.500Z,8.72
2023-05-12T02:45:59.634Z,8.78
2023-05-12T03:00:01.518Z,8.78
2023-05-12T03:16:03.767Z,8.72
2023-05-12T03:31:01.017Z,8.72
2023-05-12T03:46:03.244Z,8.72
2023-05-12T04:00:00.069Z,8.72
2023-05-12T04:16:02.349Z,8.72
2023-05-12T04:30:59.542Z,8.78
2023-05-12T04:46:02.029Z,8.83
2023-05-12T05:00:04.112Z,9
2023-05-12T05:16:01.264Z,9.06
2023-05-12T05:31:03.321Z,9
2023-05-12T05:46:00.508Z,9.06
2023-05-12T06:00:02.629Z,9.11
2023-05-12T06:15:59.825Z,9.28
2023-05-12T06:31:01.832Z,9.33
2023-05-12T06:46:04.015Z,9.5
2023-05-12T07:00:01.037Z,9.61
2023-05-12T07:16:03.388Z,9.78
2023-05-12T07:31:00.407Z,9.89
2023-05-12T07:46:02.541Z,10
2023-05-12T07:59:59.679Z,10.56
2023-05-12T08:16:02.033Z,11.06
2023-05-12T08:31:05.135Z,11
2023-05-12T08:46:01.167Z,11.39
2023-05-12T09:00:03.293Z,11.5
2023-05-12T09:16:00.496Z,11.61
2023-05-12T09:31:02.749Z,11.56
2023-05-12T09:46:00.005Z,11.89
2023-05-12T10:00:01.886Z,12.33
2023-05-12T10:16:04.056Z,13
2023-05-12T10:31:01.300Z,13.94
2023-05-12T10:46:03.468Z,13.78
2023-05-12T11:00:01.053Z,13.33
2023-05-12T11:16:02.784Z,13.44
2023-05-12T11:30:59.963Z,13.33
2023-05-12T11:46:02.133Z,13.72
2023-05-12T12:00:04.265Z,13.83
2023-05-12T12:16:01.562Z,13.83
2023-05-12T12:31:03.594Z,13.83
2023-05-12T12:46:00.762Z,13.83
2023-05-12T13:00:03.076Z,13.94
2023-05-12T13:16:00.381Z,13.94
2023-05-12T13:31:02.709Z,13.67
2023-05-12T13:45:59.811Z,13.67
2023-05-12T14:00:02.091Z,13.72
2023-05-12T14:16:04.117Z,13.89
2023-05-12T14:31:01.230Z,14
2023-05-12T14:46:03.403Z,14.06
2023-05-12T15:00:00.368Z,13.94
2023-05-12T15:16:02.814Z,13.94
2023-05-12T15:30:59.883Z,13.89
2023-05-12T15:46:02.205Z,13.83
2023-05-12T16:00:04.528Z,13.83
2023-05-12T16:16:01.443Z,13.89
2023-05-12T16:31:03.572Z,13.94
2023-05-12T16:46:00.875Z,14
2023-05-12T17:00:03.054Z,13.83
2023-05-12T17:16:00.935Z,13.67
2023-05-12T17:31:02.359Z,13.28
2023-05-12T17:46:01.817Z,13
2023-05-12T18:00:01.413Z,12.83
2023-05-12T18:16:03.658Z,12.56
2023-05-12T18:31:09.200Z,12.17
2023-05-12T18:46:03.087Z,11.72
2023-05-12T19:00:00.040Z,11.33
2023-05-12T19:16:02.524Z,11.06
2023-05-12T19:30:59.445Z,10.78
2023-05-12T19:46:01.729Z,10.61
2023-05-12T20:00:03.683Z,10.56
2023-05-12T20:16:01.122Z,10.44
2023-05-12T20:31:03.298Z,10.33
2023-05-12T20:46:00.428Z,10.28
2023-05-12T21:00:02.238Z,10.22
2023-05-12T21:15:59.677Z,10.17
2023-05-12T21:31:01.620Z,10.17
2023-05-12T21:46:04.056Z,10.17
2023-05-12T22:00:01.042Z,10.06
2023-05-12T22:16:03.334Z,10.06
2023-05-12T22:31:00.300Z,10
2023-05-12T22:46:02.243Z,9.83
2023-05-12T23:00:04.085Z,9.83
2023-05-12T23:16:01.276Z,9.83
2023-05-12T23:31:03.488Z,9.83
2023-05-12T23:46:00.586Z,9.83
